sensor_id;sensor_type;location;lat;lon;timestamp;pressure;altitude;pressure_sealevel;temperature;humidity
12799;BME280;19250;42.646;26.980;2023-07-09T00:01:30;99052.09;;;21.04;57.16
12799;BME280;19250;42.646;26.980;2023-07-09T00:03:57;99053.44;;;20.95;58.14
12799;BME280;19250;42.646;26.980;2023-07-09T00:06:24;99052.31;;;20.85;58.27
12799;BME280;19250;42.646;26.980;2023-07-09T00:08:52;99048.78;;;20.59;59.26
12799;BME280;19250;42.646;26.980;2023-07-09T00:11:19;99052.47;;;20.65;60.02
12799;BME280;19250;42.646;26.980;2023-07-09T00:13:46;99060.34;;;20.48;60.94
12799;BME280;19250;42.646;26.980;2023-07-09T00:16:13;99046.44;;;20.38;61.19
12799;BME280;19250;42.646;26.980;2023-07-09T00:18:42;99053.31;;;20.66;60.66
12799;BME280;19250;42.646;26.980;2023-07-09T00:21:08;99055.91;;;20.54;60.60
12799;BME280;19250;42.646;26.980;2023-07-09T00:23:35;99054.22;;;20.78;59.87
12799;BME280;19250;42.646;26.980;2023-07-09T00:26:06;99051.47;;;20.84;59.48
12799;BME280;19250;42.646;26.980;2023-07-09T00:28:35;99042.75;;;20.82;59.49
12799;BME280;19250;42.646;26.980;2023-07-09T00:31:02;99046.53;;;20.75;59.79
12799;BME280;19250;42.646;26.980;2023-07-09T00:33:28;99051.81;;;20.70;59.93
12799;BME280;19250;42.646;26.980;2023-07-09T00:35:58;99045.16;;;20.90;59.32
12799;BME280;19250;42.646;26.980;2023-07-09T00:38:25;99051.03;;;20.87;58.99
12799;BME280;19250;42.646;26.980;2023-07-09T00:41:01;99044.38;;;20.83;59.37
12799;BME280;19250;42.646;26.980;2023-07-09T00:43:31;99054.91;;;20.73;59.27
12799;BME280;19250;42.646;26.980;2023-07-09T00:48:45;99055.16;;;20.40;60.57
12799;BME280;19250;42.646;26.980;2023-07-09T00:51:14;99047.53;;;20.31;61.20
12799;BME280;19250;42.646;26.980;2023-07-09T00:53:42;99048.59;;;20.30;61.57
12799;BME280;19250;42.646;26.980;2023-07-09T00:56:12;99057.44;;;20.43;60.59
12799;BME280;19250;42.646;26.980;2023-07-09T00:58:42;99057.28;;;20.38;61.56
12799;BME280;19250;42.646;26.980;2023-07-09T01:01:12;99056.06;;;20.34;61.33
12799;BME280;19250;42.646;26.980;2023-07-09T01:03:42;99055.59;;;20.37;61.58
12799;BME280;19250;42.646;26.980;2023-07-09T01:06:11;99052.00;;;20.12;61.72
12799;BME280;19250;42.646;26.980;2023-07-09T01:08:39;99051.75;;;20.27;61.83
12799;BME280;19250;42.646;26.980;2023-07-09T01:11:14;99061.69;;;19.95;62.67
12799;BME280;19250;42.646;26.980;2023-07-09T01:13:48;99050.19;;;20.37;61.08
12799;BME280;19250;42.646;26.980;2023-07-09T01:16:16;99058.19;;;20.26;60.96
12799;BME280;19250;42.646;26.980;2023-07-09T01:18:43;99055.88;;;20.29;61.10
12799;BME280;19250;42.646;26.980;2023-07-09T01:21:11;99056.25;;;20.39;60.24
12799;BME280;19250;42.646;26.980;2023-07-09T01:23:40;99063.13;;;20.35;59.99
12799;BME280;19250;42.646;26.980;2023-07-09T01:26:09;99056.41;;;20.44;59.85
12799;BME280;19250;42.646;26.980;2023-07-09T01:28:37;99069.00;;;20.32;60.08
12799;BME280;19250;42.646;26.980;2023-07-09T01:31:07;99069.88;;;20.20;60.62
12799;BME280;19250;42.646;26.980;2023-07-09T01:33:34;99070.34;;;20.10;60.63
12799;BME280;19250;42.646;26.980;2023-07-09T01:36:01;99065.78;;;20.10;61.08
12799;BME280;19250;42.646;26.980;2023-07-09T01:38:30;99070.88;;;20.32;60.24
12799;BME280;19250;42.646;26.980;2023-07-09T01:40:57;99071.75;;;20.19;60.05
12799;BME280;19250;42.646;26.980;2023-07-09T01:43:24;99068.47;;;20.10;60.37
12799;BME280;19250;42.646;26.980;2023-07-09T01:45:51;99072.75;;;20.25;60.04
12799;BME280;19250;42.646;26.980;2023-07-09T01:48:18;99082.19;;;20.16;60.04
12799;BME280;19250;42.646;26.980;2023-07-09T01:50:46;99076.13;;;20.27;59.93
12799;BME280;19250;42.646;26.980;2023-07-09T01:53:14;99073.41;;;20.27;60.15
12799;BME280;19250;42.646;26.980;2023-07-09T01:55:43;99077.56;;;20.23;59.95
12799;BME280;19250;42.646;26.980;2023-07-09T01:58:11;99072.81;;;20.18;60.12
12799;BME280;19250;42.646;26.980;2023-07-09T02:00:37;99072.75;;;20.25;60.28
12799;BME280;19250;42.646;26.980;2023-07-09T02:03:06;99074.81;;;20.36;59.39
12799;BME280;19250;42.646;26.980;2023-07-09T02:05:34;99069.34;;;20.42;59.44
12799;BME280;19250;42.646;26.980;2023-07-09T02:08:02;99084.16;;;20.02;59.63
12799;BME280;19250;42.646;26.980;2023-07-09T02:10:28;99083.50;;;20.06;60.04
12799;BME280;19250;42.646;26.980;2023-07-09T02:12:57;99083.66;;;20.18;59.54
12799;BME280;19250;42.646;26.980;2023-07-09T02:15:24;99080.94;;;20.18;59.51
12799;BME280;19250;42.646;26.980;2023-07-09T02:17:51;99077.41;;;20.18;58.53
12799;BME280;19250;42.646;26.980;2023-07-09T02:20:18;99076.69;;;20.35;58.51
12799;BME280;19250;42.646;26.980;2023-07-09T02:22:45;99078.72;;;20.08;58.56
12799;BME280;19250;42.646;26.980;2023-07-09T02:25:12;99085.09;;;20.21;58.49
12799;BME280;19250;42.646;26.980;2023-07-09T02:27:39;99084.31;;;20.07;58.17
12799;BME280;19250;42.646;26.980;2023-07-09T02:30:08;99091.22;;;20.03;58.51
12799;BME280;19250;42.646;26.980;2023-07-09T02:32:36;99087.88;;;20.07;58.53
12799;BME280;19250;42.646;26.980;2023-07-09T02:35:03;99089.47;;;20.15;58.21
12799;BME280;19250;42.646;26.980;2023-07-09T02:37:30;99091.53;;;20.26;57.64
12799;BME280;19250;42.646;26.980;2023-07-09T02:39:58;99095.13;;;20.51;56.62
12799;BME280;19250;42.646;26.980;2023-07-09T02:42:25;99102.63;;;20.49;56.27
12799;BME280;19250;42.646;26.980;2023-07-09T02:44:52;99089.06;;;20.49;56.13
12799;BME280;19250;42.646;26.980;2023-07-09T02:47:20;99088.31;;;20.67;54.84
12799;BME280;19250;42.646;26.980;2023-07-09T02:49:47;99090.59;;;20.70;54.26
12799;BME280;19250;42.646;26.980;2023-07-09T02:52:14;99087.66;;;20.72;54.11
12799;BME280;19250;42.646;26.980;2023-07-09T02:54:41;99087.44;;;20.73;53.64
12799;BME280;19250;42.646;26.980;2023-07-09T02:57:07;99087.75;;;20.83;53.15
12799;BME280;19250;42.646;26.980;2023-07-09T02:59:34;99089.63;;;20.83;53.55
12799;BME280;19250;42.646;26.980;2023-07-09T03:02:01;99087.09;;;20.88;53.12
12799;BME280;19250;42.646;26.980;2023-07-09T03:04:30;99083.94;;;20.66;53.61
12799;BME280;19250;42.646;26.980;2023-07-09T03:06:57;99081.19;;;20.73;53.37
12799;BME280;19250;42.646;26.980;2023-07-09T03:09:25;99086.94;;;21.01;53.97
12799;BME280;19250;42.646;26.980;2023-07-09T03:11:52;99082.25;;;20.90;52.87
12799;BME280;19250;42.646;26.980;2023-07-09T03:14:19;99087.19;;;20.99;53.86
12799;BME280;19250;42.646;26.980;2023-07-09T03:16:45;99084.03;;;20.78;52.90
12799;BME280;19250;42.646;26.980;2023-07-09T03:19:12;99086.03;;;20.89;53.93
12799;BME280;19250;42.646;26.980;2023-07-09T03:21:41;99082.72;;;20.87;52.94
12799;BME280;19250;42.646;26.980;2023-07-09T03:24:08;99092.59;;;20.99;52.25
12799;BME280;19250;42.646;26.980;2023-07-09T03:26:35;99089.41;;;21.09;52.43
12799;BME280;19250;42.646;26.980;2023-07-09T03:29:02;99091.06;;;21.10;52.28
12799;BME280;19250;42.646;26.980;2023-07-09T03:31:29;99091.31;;;21.27;51.86
12799;BME280;19250;42.646;26.980;2023-07-09T03:33:56;99086.41;;;21.35;51.54
12799;BME280;19250;42.646;26.980;2023-07-09T03:36:23;99090.47;;;21.44;50.89
12799;BME280;19250;42.646;26.980;2023-07-09T03:38:51;99087.19;;;21.24;50.72
12799;BME280;19250;42.646;26.980;2023-07-09T03:41:18;99086.28;;;21.30;50.78
12799;BME280;19250;42.646;26.980;2023-07-09T03:43:45;99093.66;;;21.59;49.83
12799;BME280;19250;42.646;26.980;2023-07-09T03:46:15;99094.72;;;21.58;50.80
12799;BME280;19250;42.646;26.980;2023-07-09T03:48:42;99096.97;;;21.61;49.70
12799;BME280;19250;42.646;26.980;2023-07-09T03:51:09;99098.16;;;21.65;49.62
12799;BME280;19250;42.646;26.980;2023-07-09T03:53:35;99105.03;;;21.50;49.54
12799;BME280;19250;42.646;26.980;2023-07-09T03:56:04;99095.91;;;21.44;50.05
12799;BME280;19250;42.646;26.980;2023-07-09T03:58:31;99105.66;;;21.52;50.09
12799;BME280;19250;42.646;26.980;2023-07-09T04:00:58;99103.13;;;21.68;50.10
12799;BME280;19250;42.646;26.980;2023-07-09T04:03:24;99106.47;;;21.70;49.50
12799;BME280;19250;42.646;26.980;2023-07-09T04:05:51;99103.47;;;21.60;49.00
12799;BME280;19250;42.646;26.980;2023-07-09T04:08:18;99098.97;;;22.02;48.46
12799;BME280;19250;42.646;26.980;2023-07-09T04:10:45;99096.97;;;21.98;48.48
12799;BME280;19250;42.646;26.980;2023-07-09T04:13:13;99097.75;;;22.16;48.76
12799;BME280;19250;42.646;26.980;2023-07-09T04:15:40;99098.72;;;22.22;48.03
12799;BME280;19250;42.646;26.980;2023-07-09T04:18:07;99108.31;;;22.36;48.49
12799;BME280;19250;42.646;26.980;2023-07-09T04:20:34;99097.41;;;22.24;48.56
12799;BME280;19250;42.646;26.980;2023-07-09T04:23:01;99099.22;;;22.42;48.72
12799;BME280;19250;42.646;26.980;2023-07-09T04:25:28;99108.06;;;22.67;47.38
12799;BME280;19250;42.646;26.980;2023-07-09T04:27:55;99103.47;;;22.91;47.03
12799;BME280;19250;42.646;26.980;2023-07-09T04:30:23;99109.41;;;22.88;47.12
12799;BME280;19250;42.646;26.980;2023-07-09T04:32:50;99109.53;;;22.93;47.39
12799;BME280;19250;42.646;26.980;2023-07-09T04:35:17;99112.38;;;23.10;46.71
12799;BME280;19250;42.646;26.980;2023-07-09T04:37:44;99110.72;;;23.20;46.37
12799;BME280;19250;42.646;26.980;2023-07-09T04:40:12;99118.28;;;23.07;46.42
12799;BME280;19250;42.646;26.980;2023-07-09T04:42:39;99113.91;;;23.17;46.29
12799;BME280;19250;42.646;26.980;2023-07-09T04:45:07;99126.31;;;23.37;46.18
12799;BME280;19250;42.646;26.980;2023-07-09T04:47:36;99122.34;;;23.39;46.29
12799;BME280;19250;42.646;26.980;2023-07-09T04:50:03;99120.44;;;23.51;45.47
12799;BME280;19250;42.646;26.980;2023-07-09T04:52:31;99126.09;;;23.50;45.83
12799;BME280;19250;42.646;26.980;2023-07-09T04:54:57;99121.81;;;23.65;46.09
12799;BME280;19250;42.646;26.980;2023-07-09T04:57:26;99123.38;;;23.50;45.15
12799;BME280;19250;42.646;26.980;2023-07-09T04:59:54;99125.88;;;23.51;45.23
12799;BME280;19250;42.646;26.980;2023-07-09T05:02:21;99126.72;;;23.92;44.77
12799;BME280;19250;42.646;26.980;2023-07-09T05:04:49;99124.03;;;24.20;45.02
12799;BME280;19250;42.646;26.980;2023-07-09T05:07:16;99128.16;;;24.22;44.43
12799;BME280;19250;42.646;26.980;2023-07-09T05:09:43;99124.28;;;24.07;43.40
12799;BME280;19250;42.646;26.980;2023-07-09T05:12:10;99113.78;;;24.38;43.40
12799;BME280;19250;42.646;26.980;2023-07-09T05:14:37;99122.00;;;24.55;42.28
12799;BME280;19250;42.646;26.980;2023-07-09T05:17:04;99119.75;;;24.52;41.85
12799;BME280;19250;42.646;26.980;2023-07-09T05:19:31;99121.66;;;24.68;41.54
12799;BME280;19250;42.646;26.980;2023-07-09T05:21:59;99111.91;;;24.72;40.86
12799;BME280;19250;42.646;26.980;2023-07-09T05:24:26;99123.38;;;24.86;41.06
12799;BME280;19250;42.646;26.980;2023-07-09T05:26:53;99116.72;;;24.99;41.00
12799;BME280;19250;42.646;26.980;2023-07-09T05:29:20;99117.88;;;25.19;39.40
12799;BME280;19250;42.646;26.980;2023-07-09T05:31:47;99114.28;;;25.35;39.24
12799;BME280;19250;42.646;26.980;2023-07-09T05:34:14;99127.50;;;24.88;39.38
12799;BME280;19250;42.646;26.980;2023-07-09T05:36:41;99128.53;;;25.21;39.34
12799;BME280;19250;42.646;26.980;2023-07-09T05:39:09;99126.56;;;25.16;39.45
12799;BME280;19250;42.646;26.980;2023-07-09T05:41:36;99121.47;;;25.58;39.53
12799;BME280;19250;42.646;26.980;2023-07-09T05:44:03;99123.75;;;25.66;38.61
12799;BME280;19250;42.646;26.980;2023-07-09T05:46:33;99113.97;;;25.70;37.91
12799;BME280;19250;42.646;26.980;2023-07-09T05:49:01;99123.13;;;25.81;38.03
12799;BME280;19250;42.646;26.980;2023-07-09T05:51:28;99120.16;;;25.82;38.41
12799;BME280;19250;42.646;26.980;2023-07-09T05:53:55;99121.06;;;26.15;37.15
12799;BME280;19250;42.646;26.980;2023-07-09T05:56:23;99130.75;;;25.79;37.17
12799;BME280;19250;42.646;26.980;2023-07-09T05:58:50;99117.78;;;25.69;36.85
12799;BME280;19250;42.646;26.980;2023-07-09T06:01:17;99119.47;;;25.92;36.97
12799;BME280;19250;42.646;26.980;2023-07-09T06:03:45;99113.38;;;26.12;36.94
12799;BME280;19250;42.646;26.980;2023-07-09T06:06:12;99113.56;;;26.27;36.29
12799;BME280;19250;42.646;26.980;2023-07-09T06:08:39;99121.66;;;26.38;37.19
12799;BME280;19250;42.646;26.980;2023-07-09T06:11:06;99108.06;;;26.48;36.03
12799;BME280;19250;42.646;26.980;2023-07-09T06:13:34;99122.00;;;26.47;36.10
12799;BME280;19250;42.646;26.980;2023-07-09T06:16:01;99117.13;;;26.27;36.17
12799;BME280;19250;42.646;26.980;2023-07-09T06:18:28;99125.34;;;26.27;36.20
12799;BME280;19250;42.646;26.980;2023-07-09T06:20:56;99112.78;;;26.26;36.02
12799;BME280;19250;42.646;26.980;2023-07-09T06:23:23;99130.31;;;26.57;35.86
12799;BME280;19250;42.646;26.980;2023-07-09T06:25:49;99121.72;;;26.75;35.86
12799;BME280;19250;42.646;26.980;2023-07-09T06:28:19;99122.22;;;26.99;35.65
12799;BME280;19250;42.646;26.980;2023-07-09T06:30:47;99121.72;;;26.75;35.53
12799;BME280;19250;42.646;26.980;2023-07-09T06:33:15;99108.72;;;26.87;35.44
12799;BME280;19250;42.646;26.980;2023-07-09T06:35:46;99119.94;;;26.86;34.66
12799;BME280;19250;42.646;26.980;2023-07-09T06:38:13;99110.03;;;27.17;35.30
12799;BME280;19250;42.646;26.980;2023-07-09T06:40:40;99122.19;;;26.94;35.25
12799;BME280;19250;42.646;26.980;2023-07-09T06:43:07;99110.34;;;27.25;34.94
12799;BME280;19250;42.646;26.980;2023-07-09T06:45:34;99122.41;;;27.61;34.40
12799;BME280;19250;42.646;26.980;2023-07-09T06:48:02;99116.06;;;27.55;34.78
12799;BME280;19250;42.646;26.980;2023-07-09T06:50:32;99117.38;;;27.43;34.11
12799;BME280;19250;42.646;26.980;2023-07-09T06:52:59;99122.13;;;27.68;34.10
12799;BME280;19250;42.646;26.980;2023-07-09T06:55:26;99112.59;;;27.80;34.23
12799;BME280;19250;42.646;26.980;2023-07-09T06:57:52;99113.75;;;27.89;33.78
12799;BME280;19250;42.646;26.980;2023-07-09T07:00:20;99115.69;;;27.94;33.25
12799;BME280;19250;42.646;26.980;2023-07-09T07:02:47;99106.63;;;27.93;33.82
12799;BME280;19250;42.646;26.980;2023-07-09T07:05:16;99112.78;;;28.16;33.19
12799;BME280;19250;42.646;26.980;2023-07-09T07:07:44;99119.81;;;28.01;33.38
12799;BME280;19250;42.646;26.980;2023-07-09T07:10:12;99116.41;;;28.31;33.37
12799;BME280;19250;42.646;26.980;2023-07-09T07:12:43;99127.09;;;28.28;32.61
12799;BME280;19250;42.646;26.980;2023-07-09T07:15:12;99121.38;;;28.49;32.07
12799;BME280;19250;42.646;26.980;2023-07-09T07:17:40;99119.50;;;28.65;32.81
12799;BME280;19250;42.646;26.980;2023-07-09T07:20:09;99123.34;;;28.79;32.34
12799;BME280;19250;42.646;26.980;2023-07-09T07:22:38;99123.09;;;28.86;31.56
12799;BME280;19250;42.646;26.980;2023-07-09T07:25:07;99112.34;;;28.84;31.46
12799;BME280;19250;42.646;26.980;2023-07-09T07:27:36;99125.53;;;29.02;31.38
12799;BME280;19250;42.646;26.980;2023-07-09T07:30:04;99123.91;;;29.32;32.37
12799;BME280;19250;42.646;26.980;2023-07-09T07:32:35;99131.59;;;29.25;31.97
12799;BME280;19250;42.646;26.980;2023-07-09T07:35:03;99120.88;;;29.38;31.04
12799;BME280;19250;42.646;26.980;2023-07-09T07:37:31;99123.84;;;29.42;30.97
12799;BME280;19250;42.646;26.980;2023-07-09T07:39:59;99124.97;;;29.36;31.24
12799;BME280;19250;42.646;26.980;2023-07-09T07:42:27;99120.31;;;29.16;31.79
12799;BME280;19250;42.646;26.980;2023-07-09T07:44:54;99118.84;;;29.84;30.98
12799;BME280;19250;42.646;26.980;2023-07-09T07:47:22;99105.69;;;29.56;31.03
12799;BME280;19250;42.646;26.980;2023-07-09T07:49:49;99123.78;;;29.77;30.60
12799;BME280;19250;42.646;26.980;2023-07-09T07:52:16;99118.09;;;29.53;30.89
12799;BME280;19250;42.646;26.980;2023-07-09T07:54:43;99120.97;;;30.02;31.38
12799;BME280;19250;42.646;26.980;2023-07-09T07:57:12;99126.47;;;30.02;30.60
12799;BME280;19250;42.646;26.980;2023-07-09T07:59:39;99120.47;;;29.80;31.09
12799;BME280;19250;42.646;26.980;2023-07-09T08:02:11;99126.00;;;29.70;30.87
12799;BME280;19250;42.646;26.980;2023-07-09T08:04:38;99122.47;;;29.49;31.09
12799;BME280;19250;42.646;26.980;2023-07-09T08:07:07;99117.19;;;29.73;31.83
12799;BME280;19250;42.646;26.980;2023-07-09T08:09:35;99115.44;;;30.56;32.38
12799;BME280;19250;42.646;26.980;2023-07-09T08:12:02;99112.31;;;30.73;30.68
12799;BME280;19250;42.646;26.980;2023-07-09T08:14:37;99116.09;;;30.77;30.65
12799;BME280;19250;42.646;26.980;2023-07-09T08:17:05;99115.06;;;30.73;30.17
12799;BME280;19250;42.646;26.980;2023-07-09T08:19:43;99103.53;;;30.66;29.91
12799;BME280;19250;42.646;26.980;2023-07-09T08:22:11;99105.84;;;30.88;29.85
12799;BME280;19250;42.646;26.980;2023-07-09T08:24:38;99103.34;;;30.91;29.80
12799;BME280;19250;42.646;26.980;2023-07-09T08:27:06;99106.75;;;30.34;29.79
12799;BME280;19250;42.646;26.980;2023-07-09T08:29:35;99108.06;;;30.47;29.32
12799;BME280;19250;42.646;26.980;2023-07-09T08:32:03;99100.03;;;30.89;29.16
12799;BME280;19250;42.646;26.980;2023-07-09T08:34:31;99087.59;;;30.63;29.23
12799;BME280;19250;42.646;26.980;2023-07-09T08:36:59;99101.69;;;30.90;28.69
12799;BME280;19250;42.646;26.980;2023-07-09T08:39:26;99103.59;;;30.95;28.42
12799;BME280;19250;42.646;26.980;2023-07-09T08:41:57;99100.84;;;30.95;27.78
12799;BME280;19250;42.646;26.980;2023-07-09T08:44:43;99105.50;;;30.99;28.71
12799;BME280;19250;42.646;26.980;2023-07-09T08:47:18;99097.94;;;31.39;27.84
12799;BME280;19250;42.646;26.980;2023-07-09T08:49:56;99104.19;;;31.20;28.95
12799;BME280;19250;42.646;26.980;2023-07-09T08:52:28;99095.69;;;31.17;28.74
12799;BME280;19250;42.646;26.980;2023-07-09T08:55:00;99097.63;;;31.69;27.91
12799;BME280;19250;42.646;26.980;2023-07-09T08:57:34;99096.91;;;31.82;27.35
12799;BME280;19250;42.646;26.980;2023-07-09T09:00:13;99084.00;;;31.77;26.79
12799;BME280;19250;42.646;26.980;2023-07-09T09:02:47;99100.09;;;31.70;27.10
12799;BME280;19250;42.646;26.980;2023-07-09T09:05:18;99102.34;;;31.40;27.64
12799;BME280;19250;42.646;26.980;2023-07-09T09:07:51;99092.44;;;31.39;26.95
12799;BME280;19250;42.646;26.980;2023-07-09T09:10:25;99097.75;;;31.30;27.91
12799;BME280;19250;42.646;26.980;2023-07-09T09:13:07;99102.44;;;31.82;27.93
12799;BME280;19250;42.646;26.980;2023-07-09T09:15:39;99114.03;;;32.08;26.87
12799;BME280;19250;42.646;26.980;2023-07-09T09:18:21;99108.19;;;32.28;26.38
12799;BME280;19250;42.646;26.980;2023-07-09T09:20:54;99110.88;;;31.91;27.06
12799;BME280;19250;42.646;26.980;2023-07-09T09:23:25;99110.06;;;32.14;27.03
12799;BME280;19250;42.646;26.980;2023-07-09T09:25:56;99105.69;;;32.50;26.37
12799;BME280;19250;42.646;26.980;2023-07-09T09:28:27;99106.19;;;32.52;26.43
12799;BME280;19250;42.646;26.980;2023-07-09T09:30:58;99108.88;;;32.76;25.97
12799;BME280;19250;42.646;26.980;2023-07-09T09:33:25;99104.75;;;32.60;26.19
12799;BME280;19250;42.646;26.980;2023-07-09T09:36:03;99104.06;;;33.32;26.10
12799;BME280;19250;42.646;26.980;2023-07-09T09:38:35;99103.50;;;33.63;24.64
12799;BME280;19250;42.646;26.980;2023-07-09T09:41:03;99102.66;;;34.30;24.48
12799;BME280;19250;42.646;26.980;2023-07-09T09:43:33;99105.00;;;34.37;24.49
12799;BME280;19250;42.646;26.980;2023-07-09T09:46:06;99104.69;;;34.38;23.81
12799;BME280;19250;42.646;26.980;2023-07-09T09:48:34;99108.81;;;34.27;23.51
12799;BME280;19250;42.646;26.980;2023-07-09T09:51:04;99092.75;;;33.75;23.89
12799;BME280;19250;42.646;26.980;2023-07-09T09:53:37;99110.56;;;33.82;24.17
12799;BME280;19250;42.646;26.980;2023-07-09T09:56:06;99113.75;;;33.89;24.30
12799;BME280;19250;42.646;26.980;2023-07-09T09:58:40;99114.59;;;34.89;23.14
12799;BME280;19250;42.646;26.980;2023-07-09T10:01:15;99064.59;;;35.03;22.54
12799;BME280;19250;42.646;26.980;2023-07-09T10:03:43;99105.34;;;35.86;22.59
12799;BME280;19250;42.646;26.980;2023-07-09T10:06:15;99120.16;;;35.73;21.80
12799;BME280;19250;42.646;26.980;2023-07-09T10:08:52;99080.06;;;35.57;21.42
12799;BME280;19250;42.646;26.980;2023-07-09T10:11:28;99092.94;;;36.74;22.02
12799;BME280;19250;42.646;26.980;2023-07-09T10:14:01;99069.72;;;36.79;20.62
12799;BME280;19250;42.646;26.980;2023-07-09T10:16:36;99091.31;;;35.51;21.29
12799;BME280;19250;42.646;26.980;2023-07-09T10:19:14;99097.50;;;36.62;20.41
12799;BME280;19250;42.646;26.980;2023-07-09T10:21:46;99087.13;;;37.22;20.70
12799;BME280;19250;42.646;26.980;2023-07-09T10:24:32;99108.44;;;37.18;20.40
12799;BME280;19250;42.646;26.980;2023-07-09T10:27:08;99091.72;;;37.73;19.98
12799;BME280;19250;42.646;26.980;2023-07-09T10:29:57;99100.22;;;37.30;20.24
12799;BME280;19250;42.646;26.980;2023-07-09T10:32:40;99094.22;;;37.11;20.03
12799;BME280;19250;42.646;26.980;2023-07-09T10:35:21;99102.16;;;37.38;19.29
12799;BME280;19250;42.646;26.980;2023-07-09T10:37:56;99104.16;;;37.29;19.71
12799;BME280;19250;42.646;26.980;2023-07-09T10:40:30;99095.88;;;37.58;20.03
12799;BME280;19250;42.646;26.980;2023-07-09T10:42:58;99094.97;;;37.29;20.86
12799;BME280;19250;42.646;26.980;2023-07-09T10:45:28;99104.75;;;37.43;20.31
12799;BME280;19250;42.646;26.980;2023-07-09T10:47:59;99094.34;;;37.23;20.49
12799;BME280;19250;42.646;26.980;2023-07-09T10:50:29;99098.50;;;37.64;19.89
12799;BME280;19250;42.646;26.980;2023-07-09T10:52:57;99087.63;;;38.08;19.91
12799;BME280;19250;42.646;26.980;2023-07-09T10:55:29;99093.06;;;37.12;20.78
12799;BME280;19250;42.646;26.980;2023-07-09T10:57:58;99100.31;;;37.59;20.54
12799;BME280;19250;42.646;26.980;2023-07-09T11:00:30;99092.91;;;36.91;20.62
12799;BME280;19250;42.646;26.980;2023-07-09T11:03:02;99093.41;;;37.66;19.87
12799;BME280;19250;42.646;26.980;2023-07-09T11:05:30;99093.94;;;37.50;19.77
12799;BME280;19250;42.646;26.980;2023-07-09T11:07:59;99091.06;;;37.30;20.27
12799;BME280;19250;42.646;26.980;2023-07-09T11:10:27;99099.13;;;37.05;19.85
12799;BME280;19250;42.646;26.980;2023-07-09T11:12:57;99077.88;;;36.84;20.60
12799;BME280;19250;42.646;26.980;2023-07-09T11:15:27;99098.31;;;37.05;20.45
12799;BME280;19250;42.646;26.980;2023-07-09T11:17:57;99099.09;;;37.23;20.15
12799;BME280;19250;42.646;26.980;2023-07-09T11:20:27;99093.81;;;37.38;20.13
12799;BME280;19250;42.646;26.980;2023-07-09T11:22:59;99076.47;;;37.33;20.88
12799;BME280;19250;42.646;26.980;2023-07-09T11:25:28;99081.50;;;35.85;22.06
12799;BME280;19250;42.646;26.980;2023-07-09T11:28:01;99074.19;;;35.97;21.93
12799;BME280;19250;42.646;26.980;2023-07-09T11:30:29;99088.47;;;36.30;21.41
12799;BME280;19250;42.646;26.980;2023-07-09T11:32:56;99086.84;;;36.29;21.40
12799;BME280;19250;42.646;26.980;2023-07-09T11:35:24;99090.31;;;36.78;20.75
12799;BME280;19250;42.646;26.980;2023-07-09T11:37:53;99096.41;;;35.97;21.70
12799;BME280;19250;42.646;26.980;2023-07-09T11:40:21;99080.00;;;36.87;20.62
12799;BME280;19250;42.646;26.980;2023-07-09T11:42:50;99083.88;;;38.04;19.81
12799;BME280;19250;42.646;26.980;2023-07-09T11:45:21;99087.16;;;38.68;18.86
12799;BME280;19250;42.646;26.980;2023-07-09T11:47:54;99087.56;;;37.41;20.04
12799;BME280;19250;42.646;26.980;2023-07-09T11:50:28;99084.31;;;37.86;19.83
12799;BME280;19250;42.646;26.980;2023-07-09T11:52:59;99088.00;;;38.28;19.53
12799;BME280;19250;42.646;26.980;2023-07-09T11:55:31;99080.06;;;38.59;19.25
12799;BME280;19250;42.646;26.980;2023-07-09T11:58:04;99083.31;;;38.82;19.42
12799;BME280;19250;42.646;26.980;2023-07-09T12:00:38;99083.56;;;40.27;18.12
12799;BME280;19250;42.646;26.980;2023-07-09T12:03:07;99079.13;;;39.53;18.71
12799;BME280;19250;42.646;26.980;2023-07-09T12:05:37;99074.69;;;40.25;18.58
12799;BME280;19250;42.646;26.980;2023-07-09T12:08:06;99085.66;;;40.06;17.98
12799;BME280;19250;42.646;26.980;2023-07-09T12:10:34;99075.88;;;40.00;18.07
12799;BME280;19250;42.646;26.980;2023-07-09T12:13:01;99073.44;;;39.17;19.09
12799;BME280;19250;42.646;26.980;2023-07-09T12:15:29;99076.31;;;40.26;18.97
12799;BME280;19250;42.646;26.980;2023-07-09T12:17:58;99083.56;;;39.79;18.67
12799;BME280;19250;42.646;26.980;2023-07-09T12:20:25;99084.03;;;40.69;18.24
12799;BME280;19250;42.646;26.980;2023-07-09T12:22:55;99080.19;;;39.85;18.94
12799;BME280;19250;42.646;26.980;2023-07-09T12:25:24;99070.34;;;40.52;18.86
12799;BME280;19250;42.646;26.980;2023-07-09T12:27:52;99061.81;;;40.48;18.34
12799;BME280;19250;42.646;26.980;2023-07-09T12:30:19;99064.75;;;40.52;17.87
12799;BME280;19250;42.646;26.980;2023-07-09T12:32:46;99070.88;;;39.81;18.55
12799;BME280;19250;42.646;26.980;2023-07-09T12:35:15;99063.75;;;39.59;18.59
12799;BME280;19250;42.646;26.980;2023-07-09T12:37:42;99063.31;;;39.94;18.38
12799;BME280;19250;42.646;26.980;2023-07-09T12:40:14;99057.75;;;38.80;19.58
12799;BME280;19250;42.646;26.980;2023-07-09T12:42:43;99061.63;;;38.99;19.13
12799;BME280;19250;42.646;26.980;2023-07-09T12:45:14;99066.72;;;38.64;19.99
12799;BME280;19250;42.646;26.980;2023-07-09T12:47:42;99070.09;;;38.91;19.43
12799;BME280;19250;42.646;26.980;2023-07-09T12:50:15;99061.69;;;38.79;19.31
12799;BME280;19250;42.646;26.980;2023-07-09T12:52:46;99056.31;;;37.82;19.89
12799;BME280;19250;42.646;26.980;2023-07-09T12:55:20;99051.72;;;36.76;20.55
12799;BME280;19250;42.646;26.980;2023-07-09T12:57:49;99054.16;;;36.78;20.94
12799;BME280;19250;42.646;26.980;2023-07-09T13:00:16;99042.56;;;37.77;20.30
12799;BME280;19250;42.646;26.980;2023-07-09T13:02:44;99054.69;;;39.50;18.82